sensor_id;sensor_type;location;lat;lon;timestamp;P1;durP1;ratioP1;P2;durP2;ratioP2
24867;SDS011;12941;48.698;9.310;2023-09-19T00:00:03;2.7;;;1;;
24867;SDS011;12941;48.698;9.310;2023-09-19T00:01:08;2.7;;;1;;
24867;SDS011;12941;48.698;9.310;2023-09-19T00:02:12;2.7;;;1;;
24867;SDS011;12941;48.698;9.310;2023-09-19T00:03:13;1.1;;;0.8;;
24867;SDS011;12941;48.698;9.310;2023-09-19T00:04:18;1.1;;;0.8;;
24867;SDS011;12941;48.698;9.310;2023-09-19T00:05:22;1.1;;;0.8;;
24867;SDS011;12941;48.698;9.310;2023-09-19T00:06:28;1.1;;;0.8;;
24867;SDS011;12941;48.698;9.310;2023-09-19T00:07:33;1.4;;;0.9;;
24867;SDS011;12941;48.698;9.310;2023-09-19T00:08:37;1.4;;;0.9;;
24867;SDS011;12941;48.698;9.310;2023-09-19T00:09:38;1.4;;;0.9;;
24867;SDS011;12941;48.698;9.310;2023-09-19T00:10:43;1.4;;;0.9;;
24867;SDS011;12941;48.698;9.310;2023-09-19T00:11:49;1.4;;;0.9;;
24867;SDS011;12941;48.698;9.310;2023-09-19T00:12:53;1.6;;;0.8;;
24867;SDS011;12941;48.698;9.310;2023-09-19T00:13:52;1.6;;;0.8;;
24867;SDS011;12941;48.698;9.310;2023-09-19T00:14:52;1.6;;;0.8;;
24867;SDS011;12941;48.698;9.310;2023-09-19T00:15:52;1.6;;;0.8;;
24867;SDS011;12941;48.698;9.310;2023-09-19T00:16:58;1.6;;;0.8;;
24867;SDS011;12941;48.698;9.310;2023-09-19T00:18:03;1.6;;;0.7;;
24867;SDS011;12941;48.698;9.310;2023-09-19T00:19:08;1.6;;;0.7;;
24867;SDS011;12941;48.698;9.310;2023-09-19T00:20:08;1.6;;;0.7;;
24867;SDS011;12941;48.698;9.310;2023-09-19T00:21:12;1.6;;;0.7;;
24867;SDS011;12941;48.698;9.310;2023-09-19T00:22:12;1.6;;;0.7;;
24867;SDS011;12941;48.698;9.310;2023-09-19T00:23:13;1;;;0.8;;
24867;SDS011;12941;48.698;9.310;2023-09-19T00:24:18;1;;;0.8;;
24867;SDS011;12941;48.698;9.310;2023-09-19T00:25:22;1;;;0.8;;
24867;SDS011;12941;48.698;9.310;2023-09-19T00:26:23;1;;;0.8;;
24867;SDS011;12941;48.698;9.310;2023-09-19T00:27:22;2.8;;;0.8;;
24867;SDS011;12941;48.698;9.310;2023-09-19T00:28:28;2.8;;;0.8;;
24867;SDS011;12941;48.698;9.310;2023-09-19T00:29:33;2.8;;;0.8;;
24867;SDS011;12941;48.698;9.310;2023-09-19T00:30:38;2.8;;;0.8;;
24867;SDS011;12941;48.698;9.310;2023-09-19T00:31:43;2.8;;;0.8;;
24867;SDS011;12941;48.698;9.310;2023-09-19T00:32:48;0.9;;;0.7;;
24867;SDS011;12941;48.698;9.310;2023-09-19T00:33:53;0.9;;;0.7;;
24867;SDS011;12941;48.698;9.310;2023-09-19T00:34:53;0.9;;;0.7;;
24867;SDS011;12941;48.698;9.310;2023-09-19T00:35:53;0.9;;;0.7;;
24867;SDS011;12941;48.698;9.310;2023-09-19T00:36:53;0.9;;;0.7;;
24867;SDS011;12941;48.698;9.310;2023-09-19T00:37:53;1.1;;;0.7;;
24867;SDS011;12941;48.698;9.310;2023-09-19T00:38:58;1.1;;;0.7;;
24867;SDS011;12941;48.698;9.310;2023-09-19T00:40:03;1.1;;;0.7;;
24867;SDS011;12941;48.698;9.310;2023-09-19T00:41:03;1.1;;;0.7;;
24867;SDS011;12941;48.698;9.310;2023-09-19T00:42:03;1.1;;;0.7;;
24867;SDS011;12941;48.698;9.310;2023-09-19T00:43:08;2.1;;;0.9;;
24867;SDS011;12941;48.698;9.310;2023-09-19T00:44:13;2.1;;;0.9;;
24867;SDS011;12941;48.698;9.310;2023-09-19T00:45:13;2.1;;;0.9;;
24867;SDS011;12941;48.698;9.310;2023-09-19T00:46:14;2.1;;;0.9;;
24867;SDS011;12941;48.698;9.310;2023-09-19T00:47:18;2.1;;;0.9;;
24867;SDS011;12941;48.698;9.310;2023-09-19T00:48:18;2.1;;;0.8;;
24867;SDS011;12941;48.698;9.310;2023-09-19T00:49:23;2.1;;;0.8;;
24867;SDS011;12941;48.698;9.310;2023-09-19T00:50:28;2.1;;;0.8;;
24867;SDS011;12941;48.698;9.310;2023-09-19T00:51:33;2.1;;;0.8;;
24867;SDS011;12941;48.698;9.310;2023-09-19T00:52:38;1.4;;;0.7;;
24867;SDS011;12941;48.698;9.310;2023-09-19T00:53:38;1.4;;;0.7;;
24867;SDS011;12941;48.698;9.310;2023-09-19T00:54:43;1.4;;;0.7;;
24867;SDS011;12941;48.698;9.310;2023-09-19T00:55:43;1.4;;;0.7;;
24867;SDS011;12941;48.698;9.310;2023-09-19T00:56:43;1.4;;;0.7;;
24867;SDS011;12941;48.698;9.310;2023-09-19T00:57:48;1.8;;;0.8;;
24867;SDS011;12941;48.698;9.310;2023-09-19T00:58:48;1.8;;;0.8;;
24867;SDS011;12941;48.698;9.310;2023-09-19T00:59:53;1.8;;;0.8;;
24867;SDS011;12941;48.698;9.310;2023-09-19T01:00:59;1.8;;;0.8;;
24867;SDS011;12941;48.698;9.310;2023-09-19T01:02:03;1.8;;;0.8;;
24867;SDS011;12941;48.698;9.310;2023-09-19T01:03:03;2.3;;;0.7;;
24867;SDS011;12941;48.698;9.310;2023-09-19T01:04:08;2.3;;;0.7;;
24867;SDS011;12941;48.698;9.310;2023-09-19T01:05:13;2.3;;;0.7;;
24867;SDS011;12941;48.698;9.310;2023-09-19T01:06:13;2.3;;;0.7;;
24867;SDS011;12941;48.698;9.310;2023-09-19T01:07:13;2.3;;;0.7;;
24867;SDS011;12941;48.698;9.310;2023-09-19T01:08:18;1.8;;;0.7;;
24867;SDS011;12941;48.698;9.310;2023-09-19T01:09:23;1.8;;;0.7;;
24867;SDS011;12941;48.698;9.310;2023-09-19T01:10:23;1.8;;;0.7;;
24867;SDS011;12941;48.698;9.310;2023-09-19T01:11:31;1.8;;;0.7;;
24867;SDS011;12941;48.698;9.310;2023-09-19T01:12:35;1.6;;;0.7;;
24867;SDS011;12941;48.698;9.310;2023-09-19T01:13:42;1.6;;;0.7;;
24867;SDS011;12941;48.698;9.310;2023-09-19T01:14:44;1.6;;;0.7;;
24867;SDS011;12941;48.698;9.310;2023-09-19T01:15:49;1.6;;;0.7;;
24867;SDS011;12941;48.698;9.310;2023-09-19T01:16:50;1.6;;;0.7;;
24867;SDS011;12941;48.698;9.310;2023-09-19T01:17:56;1;;;0.6;;
24867;SDS011;12941;48.698;9.310;2023-09-19T01:18:55;1;;;0.6;;
24867;SDS011;12941;48.698;9.310;2023-09-19T01:20:03;1;;;0.6;;
24867;SDS011;12941;48.698;9.310;2023-09-19T01:21:00;1;;;0.6;;
24867;SDS011;12941;48.698;9.310;2023-09-19T01:22:05;1;;;0.6;;
24867;SDS011;12941;48.698;9.310;2023-09-19T01:23:11;0.8;;;0.7;;
24867;SDS011;12941;48.698;9.310;2023-09-19T01:24:17;0.8;;;0.7;;
24867;SDS011;12941;48.698;9.310;2023-09-19T01:25:29;0.8;;;0.7;;
24867;SDS011;12941;48.698;9.310;2023-09-19T01:26:19;0.8;;;0.7;;
24867;SDS011;12941;48.698;9.310;2023-09-19T01:27:31;0.5;;;0.5;;
24867;SDS011;12941;48.698;9.310;2023-09-19T01:28:29;0.5;;;0.5;;
24867;SDS011;12941;48.698;9.310;2023-09-19T01:29:26;0.5;;;0.5;;
24867;SDS011;12941;48.698;9.310;2023-09-19T01:30:31;0.5;;;0.5;;
24867;SDS011;12941;48.698;9.310;2023-09-19T01:31:33;0.5;;;0.5;;
24867;SDS011;12941;48.698;9.310;2023-09-19T01:32:38;0.8;;;0.6;;
24867;SDS011;12941;48.698;9.310;2023-09-19T01:33:53;0.8;;;0.6;;
24867;SDS011;12941;48.698;9.310;2023-09-19T01:34:44;0.8;;;0.6;;
24867;SDS011;12941;48.698;9.310;2023-09-19T01:35:48;0.8;;;0.6;;
24867;SDS011;12941;48.698;9.310;2023-09-19T01:36:48;0.8;;;0.6;;
24867;SDS011;12941;48.698;9.310;2023-09-19T01:37:48;1.3;;;0.5;;
24867;SDS011;12941;48.698;9.310;2023-09-19T01:38:48;1.3;;;0.5;;
24867;SDS011;12941;48.698;9.310;2023-09-19T01:40:04;1.3;;;0.5;;
24867;SDS011;12941;48.698;9.310;2023-09-19T01:40:57;1.3;;;0.5;;
24867;SDS011;12941;48.698;9.310;2023-09-19T01:41:59;1.3;;;0.5;;
24867;SDS011;12941;48.698;9.310;2023-09-19T01:42:59;1.3;;;0.7;;
24867;SDS011;12941;48.698;9.310;2023-09-19T01:44:03;1.3;;;0.7;;
24867;SDS011;12941;48.698;9.310;2023-09-19T01:45:05;1.3;;;0.7;;
24867;SDS011;12941;48.698;9.310;2023-09-19T01:46:04;1.3;;;0.7;;
24867;SDS011;12941;48.698;9.310;2023-09-19T01:47:13;1.3;;;0.7;;
24867;SDS011;12941;48.698;9.310;2023-09-19T01:48:16;2.9;;;0.7;;
24867;SDS011;12941;48.698;9.310;2023-09-19T01:49:22;2.9;;;0.7;;
24867;SDS011;12941;48.698;9.310;2023-09-19T01:50:21;2.9;;;0.7;;
24867;SDS011;12941;48.698;9.310;2023-09-19T01:51:26;2.9;;;0.7;;
24867;SDS011;12941;48.698;9.310;2023-09-19T01:52:23;1;;;0.6;;
24867;SDS011;12941;48.698;9.310;2023-09-19T01:53:30;1;;;0.6;;
24867;SDS011;12941;48.698;9.310;2023-09-19T01:54:30;1;;;0.6;;
24867;SDS011;12941;48.698;9.310;2023-09-19T01:55:35;1;;;0.6;;
24867;SDS011;12941;48.698;9.310;2023-09-19T01:56:40;1;;;0.6;;
24867;SDS011;12941;48.698;9.310;2023-09-19T01:57:40;1.5;;;0.6;;
24867;SDS011;12941;48.698;9.310;2023-09-19T01:58:45;1.5;;;0.6;;
24867;SDS011;12941;48.698;9.310;2023-09-19T01:59:45;1.5;;;0.6;;
24867;SDS011;12941;48.698;9.310;2023-09-19T02:00:43;1.5;;;0.6;;
24867;SDS011;12941;48.698;9.310;2023-09-19T02:01:48;1.5;;;0.6;;
24867;SDS011;12941;48.698;9.310;2023-09-19T02:02:48;0.8;;;0.6;;
24867;SDS011;12941;48.698;9.310;2023-09-19T02:03:53;0.8;;;0.6;;
24867;SDS011;12941;48.698;9.310;2023-09-19T02:04:58;0.8;;;0.6;;
24867;SDS011;12941;48.698;9.310;2023-09-19T02:06:03;0.8;;;0.6;;
24867;SDS011;12941;48.698;9.310;2023-09-19T02:07:03;0.8;;;0.6;;
24867;SDS011;12941;48.698;9.310;2023-09-19T02:08:03;0.7;;;0.7;;
24867;SDS011;12941;48.698;9.310;2023-09-19T02:09:03;0.7;;;0.7;;
24867;SDS011;12941;48.698;9.310;2023-09-19T02:10:08;0.7;;;0.7;;
24867;SDS011;12941;48.698;9.310;2023-09-19T02:11:13;0.7;;;0.7;;
24867;SDS011;12941;48.698;9.310;2023-09-19T02:12:13;0.7;;;0.7;;
24867;SDS011;12941;48.698;9.310;2023-09-19T02:13:13;0.7;;;0.6;;
24867;SDS011;12941;48.698;9.310;2023-09-19T02:14:13;0.7;;;0.6;;
24867;SDS011;12941;48.698;9.310;2023-09-19T02:15:13;0.7;;;0.6;;
24867;SDS011;12941;48.698;9.310;2023-09-19T02:16:18;0.7;;;0.6;;
24867;SDS011;12941;48.698;9.310;2023-09-19T02:17:23;0.9;;;0.6;;
24867;SDS011;12941;48.698;9.310;2023-09-19T02:18:23;0.9;;;0.6;;
24867;SDS011;12941;48.698;9.310;2023-09-19T02:19:23;0.9;;;0.6;;
24867;SDS011;12941;48.698;9.310;2023-09-19T02:20:23;0.9;;;0.6;;
24867;SDS011;12941;48.698;9.310;2023-09-19T02:21:28;0.9;;;0.6;;
24867;SDS011;12941;48.698;9.310;2023-09-19T02:22:33;3.4;;;0.9;;
24867;SDS011;12941;48.698;9.310;2023-09-19T02:23:33;3.4;;;0.9;;
24867;SDS011;12941;48.698;9.310;2023-09-19T02:24:33;3.4;;;0.9;;
24867;SDS011;12941;48.698;9.310;2023-09-19T02:25:33;3.4;;;0.9;;
24867;SDS011;12941;48.698;9.310;2023-09-19T02:26:33;3.4;;;0.9;;
24867;SDS011;12941;48.698;9.310;2023-09-19T02:27:38;1.9;;;0.7;;
24867;SDS011;12941;48.698;9.310;2023-09-19T02:28:43;1.9;;;0.7;;
24867;SDS011;12941;48.698;9.310;2023-09-19T02:29:43;1.9;;;0.7;;
24867;SDS011;12941;48.698;9.310;2023-09-19T02:30:48;1.9;;;0.7;;
24867;SDS011;12941;48.698;9.310;2023-09-19T02:31:53;1.9;;;0.7;;
24867;SDS011;12941;48.698;9.310;2023-09-19T02:32:53;1.2;;;0.8;;
24867;SDS011;12941;48.698;9.310;2023-09-19T02:33:58;1.2;;;0.8;;
24867;SDS011;12941;48.698;9.310;2023-09-19T02:34:58;1.2;;;0.8;;
24867;SDS011;12941;48.698;9.310;2023-09-19T02:36:03;1.2;;;0.8;;
24867;SDS011;12941;48.698;9.310;2023-09-19T02:37:03;1.2;;;0.8;;
24867;SDS011;12941;48.698;9.310;2023-09-19T02:38:08;1;;;0.7;;
24867;SDS011;12941;48.698;9.310;2023-09-19T02:39:08;1;;;0.7;;
24867;SDS011;12941;48.698;9.310;2023-09-19T02:40:09;1;;;0.7;;
24867;SDS011;12941;48.698;9.310;2023-09-19T02:41:09;1;;;0.7;;
24867;SDS011;12941;48.698;9.310;2023-09-19T02:42:13;1;;;0.7;;
24867;SDS011;12941;48.698;9.310;2023-09-19T02:43:14;0.9;;;0.7;;
24867;SDS011;12941;48.698;9.310;2023-09-19T02:44:18;0.9;;;0.7;;
24867;SDS011;12941;48.698;9.310;2023-09-19T02:45:23;0.9;;;0.7;;
24867;SDS011;12941;48.698;9.310;2023-09-19T02:46:28;0.9;;;0.7;;
24867;SDS011;12941;48.698;9.310;2023-09-19T02:47:28;1.2;;;0.8;;
24867;SDS011;12941;48.698;9.310;2023-09-19T02:48:33;1.2;;;0.8;;
24867;SDS011;12941;48.698;9.310;2023-09-19T02:49:33;1.2;;;0.8;;
24867;SDS011;12941;48.698;9.310;2023-09-19T02:50:34;1.2;;;0.8;;
24867;SDS011;12941;48.698;9.310;2023-09-19T02:51:38;1.2;;;0.8;;
24867;SDS011;12941;48.698;9.310;2023-09-19T02:52:44;1.9;;;0.7;;
24867;SDS011;12941;48.698;9.310;2023-09-19T02:53:49;1.9;;;0.7;;
24867;SDS011;12941;48.698;9.310;2023-09-19T02:54:48;1.9;;;0.7;;
24867;SDS011;12941;48.698;9.310;2023-09-19T02:55:53;1.9;;;0.7;;
24867;SDS011;12941;48.698;9.310;2023-09-19T02:56:58;1.9;;;0.7;;
24867;SDS011;12941;48.698;9.310;2023-09-19T02:57:58;1.8;;;0.7;;
24867;SDS011;12941;48.698;9.310;2023-09-19T02:59:04;1.8;;;0.7;;
24867;SDS011;12941;48.698;9.310;2023-09-19T03:00:09;1.8;;;0.7;;
24867;SDS011;12941;48.698;9.310;2023-09-19T03:01:09;1.8;;;0.7;;
24867;SDS011;12941;48.698;9.310;2023-09-19T03:02:14;1.8;;;0.7;;
24867;SDS011;12941;48.698;9.310;2023-09-19T03:03:18;1.1;;;0.8;;
24867;SDS011;12941;48.698;9.310;2023-09-19T03:04:19;1.1;;;0.8;;
24867;SDS011;12941;48.698;9.310;2023-09-19T03:05:23;1.1;;;0.8;;
24867;SDS011;12941;48.698;9.310;2023-09-19T03:06:23;1.1;;;0.8;;
24867;SDS011;12941;48.698;9.310;2023-09-19T03:07:24;0.9;;;0.7;;
24867;SDS011;12941;48.698;9.310;2023-09-19T03:08:29;0.9;;;0.7;;
24867;SDS011;12941;48.698;9.310;2023-09-19T03:09:29;0.9;;;0.7;;
24867;SDS011;12941;48.698;9.310;2023-09-19T03:10:29;0.9;;;0.7;;
24867;SDS011;12941;48.698;9.310;2023-09-19T03:11:34;0.9;;;0.7;;
24867;SDS011;12941;48.698;9.310;2023-09-19T03:12:39;1.1;;;0.8;;
24867;SDS011;12941;48.698;9.310;2023-09-19T03:13:44;1.1;;;0.8;;
24867;SDS011;12941;48.698;9.310;2023-09-19T03:14:44;1.1;;;0.8;;
24867;SDS011;12941;48.698;9.310;2023-09-19T03:15:48;1.1;;;0.8;;
24867;SDS011;12941;48.698;9.310;2023-09-19T03:16:48;1.1;;;0.8;;
24867;SDS011;12941;48.698;9.310;2023-09-19T03:17:49;2.1;;;0.8;;
24867;SDS011;12941;48.698;9.310;2023-09-19T03:18:54;2.1;;;0.8;;
24867;SDS011;12941;48.698;9.310;2023-09-19T03:19:59;2.1;;;0.8;;
24867;SDS011;12941;48.698;9.310;2023-09-19T03:21:04;2.1;;;0.8;;
24867;SDS011;12941;48.698;9.310;2023-09-19T03:22:08;2.1;;;0.8;;
24867;SDS011;12941;48.698;9.310;2023-09-19T03:23:09;1.1;;;0.8;;
24867;SDS011;12941;48.698;9.310;2023-09-19T03:24:14;1.1;;;0.8;;
24867;SDS011;12941;48.698;9.310;2023-09-19T03:25:14;1.1;;;0.8;;
24867;SDS011;12941;48.698;9.310;2023-09-19T03:26:19;1.1;;;0.8;;
24867;SDS011;12941;48.698;9.310;2023-09-19T03:27:19;2.2;;;1.1;;
24867;SDS011;12941;48.698;9.310;2023-09-19T03:28:24;2.2;;;1.1;;
24867;SDS011;12941;48.698;9.310;2023-09-19T03:29:24;2.2;;;1.1;;
24867;SDS011;12941;48.698;9.310;2023-09-19T03:30:29;2.2;;;1.1;;
24867;SDS011;12941;48.698;9.310;2023-09-19T03:31:34;2.2;;;1.1;;
24867;SDS011;12941;48.698;9.310;2023-09-19T03:32:34;1.3;;;0.8;;
24867;SDS011;12941;48.698;9.310;2023-09-19T03:33:39;1.3;;;0.8;;
24867;SDS011;12941;48.698;9.310;2023-09-19T03:34:44;1.3;;;0.8;;
24867;SDS011;12941;48.698;9.310;2023-09-19T03:35:51;1.3;;;0.8;;
24867;SDS011;12941;48.698;9.310;2023-09-19T03:36:49;1.3;;;0.8;;
24867;SDS011;12941;48.698;9.310;2023-09-19T03:37:49;1.6;;;0.9;;
24867;SDS011;12941;48.698;9.310;2023-09-19T03:38:54;1.6;;;0.9;;
24867;SDS011;12941;48.698;9.310;2023-09-19T03:39:54;1.6;;;0.9;;
24867;SDS011;12941;48.698;9.310;2023-09-19T03:40:59;1.6;;;0.9;;
24867;SDS011;12941;48.698;9.310;2023-09-19T03:41:59;1.6;;;0.9;;
24867;SDS011;12941;48.698;9.310;2023-09-19T03:43:04;1.1;;;0.7;;
24867;SDS011;12941;48.698;9.310;2023-09-19T03:44:04;1.1;;;0.7;;
24867;SDS011;12941;48.698;9.310;2023-09-19T03:45:09;1.1;;;0.7;;
24867;SDS011;12941;48.698;9.310;2023-09-19T03:46:09;1.1;;;0.7;;
24867;SDS011;12941;48.698;9.310;2023-09-19T03:47:14;1.1;;;0.7;;
24867;SDS011;12941;48.698;9.310;2023-09-19T03:48:14;1.7;;;0.9;;
24867;SDS011;12941;48.698;9.310;2023-09-19T03:49:19;1.7;;;0.9;;
24867;SDS011;12941;48.698;9.310;2023-09-19T03:50:19;1.7;;;0.9;;
24867;SDS011;12941;48.698;9.310;2023-09-19T03:51:24;1.7;;;0.9;;
24867;SDS011;12941;48.698;9.310;2023-09-19T03:52:24;1.2;;;0.9;;
24867;SDS011;12941;48.698;9.310;2023-09-19T03:53:29;1.2;;;0.9;;
24867;SDS011;12941;48.698;9.310;2023-09-19T03:54:29;1.2;;;0.9;;
24867;SDS011;12941;48.698;9.310;2023-09-19T03:55:29;1.2;;;0.9;;
24867;SDS011;12941;48.698;9.310;2023-09-19T03:56:29;1.2;;;0.9;;
24867;SDS011;12941;48.698;9.310;2023-09-19T03:57:29;1.5;;;0.9;;
24867;SDS011;12941;48.698;9.310;2023-09-19T03:58:34;1.5;;;0.9;;
24867;SDS011;12941;48.698;9.310;2023-09-19T03:59:39;1.5;;;0.9;;
24867;SDS011;12941;48.698;9.310;2023-09-19T04:00:39;1.5;;;0.9;;
24867;SDS011;12941;48.698;9.310;2023-09-19T04:01:44;1.5;;;0.9;;
24867;SDS011;12941;48.698;9.310;2023-09-19T04:02:44;1.4;;;0.8;;
24867;SDS011;12941;48.698;9.310;2023-09-19T04:03:44;1.4;;;0.8;;
24867;SDS011;12941;48.698;9.310;2023-09-19T04:04:49;1.4;;;0.8;;
24867;SDS011;12941;48.698;9.310;2023-09-19T04:05:49;1.4;;;0.8;;
24867;SDS011;12941;48.698;9.310;2023-09-19T04:06:49;1.4;;;0.8;;
24867;SDS011;12941;48.698;9.310;2023-09-19T04:07:54;1.6;;;1;;
24867;SDS011;12941;48.698;9.310;2023-09-19T04:08:59;1.6;;;1;;
24867;SDS011;12941;48.698;9.310;2023-09-19T04:10:04;1.6;;;1;;
24867;SDS011;12941;48.698;9.310;2023-09-19T04:11:09;1.6;;;1;;
24867;SDS011;12941;48.698;9.310;2023-09-19T04:12:14;1.6;;;1;;
24867;SDS011;12941;48.698;9.310;2023-09-19T04:13:19;0.8;;;0.8;;
24867;SDS011;12941;48.698;9.310;2023-09-19T04:14:19;0.8;;;0.8;;
24867;SDS011;12941;48.698;9.310;2023-09-19T04:15:24;0.8;;;0.8;;
24867;SDS011;12941;48.698;9.310;2023-09-19T04:16:24;0.8;;;0.8;;
24867;SDS011;12941;48.698;9.310;2023-09-19T04:17:24;2;;;0.9;;
24867;SDS011;12941;48.698;9.310;2023-09-19T04:18:29;2;;;0.9;;
24867;SDS011;12941;48.698;9.310;2023-09-19T04:19:29;2;;;0.9;;
24867;SDS011;12941;48.698;9.310;2023-09-19T04:20:29;2;;;0.9;;
24867;SDS011;12941;48.698;9.310;2023-09-19T04:21:29;2;;;0.9;;
24867;SDS011;12941;48.698;9.310;2023-09-19T04:22:34;1.1;;;1;;
24867;SDS011;12941;48.698;9.310;2023-09-19T04:23:34;1.1;;;1;;
24867;SDS011;12941;48.698;9.310;2023-09-19T04:24:34;1.1;;;1;;
24867;SDS011;12941;48.698;9.310;2023-09-19T04:25:40;1.1;;;1;;
24867;SDS011;12941;48.698;9.310;2023-09-19T04:26:44;1.1;;;1;;
24867;SDS011;12941;48.698;9.310;2023-09-19T04:27:44;1.8;;;0.9;;
24867;SDS011;12941;48.698;9.310;2023-09-19T04:28:49;1.8;;;0.9;;
24867;SDS011;12941;48.698;9.310;2023-09-19T04:29:54;1.8;;;0.9;;
24867;SDS011;12941;48.698;9.310;2023-09-19T04:30:54;1.8;;;0.9;;
24867;SDS011;12941;48.698;9.310;2023-09-19T04:31:59;1.8;;;0.9;;
24867;SDS011;12941;48.698;9.310;2023-09-19T04:32:59;2;;;0.9;;
24867;SDS011;12941;48.698;9.310;2023-09-19T04:33:59;2;;;0.9;;
24867;SDS011;12941;48.698;9.310;2023-09-19T04:34:59;2;;;0.9;;
24867;SDS011;12941;48.698;9.310;2023-09-19T04:36:04;2;;;0.9;;
24867;SDS011;12941;48.698;9.310;2023-09-19T04:37:04;2;;;0.9;;
24867;SDS011;12941;48.698;9.310;2023-09-19T04:38:09;2.2;;;1;;
24867;SDS011;12941;48.698;9.310;2023-09-19T04:39:14;2.2;;;1;;
24867;SDS011;12941;48.698;9.310;2023-09-19T04:40:14;2.2;;;1;;
24867;SDS011;12941;48.698;9.310;2023-09-19T04:41:19;2.2;;;1;;
24867;SDS011;12941;48.698;9.310;2023-09-19T04:42:19;1.8;;;0.9;;
24867;SDS011;12941;48.698;9.310;2023-09-19T04:43:19;1.7;;;0.9;;
24867;SDS011;12941;48.698;9.310;2023-09-19T04:44:19;1.7;;;0.9;;
24867;SDS011;12941;48.698;9.310;2023-09-19T04:45:24;1.7;;;0.9;;
24867;SDS011;12941;48.698;9.310;2023-09-19T04:46:30;1.7;;;0.9;;
24867;SDS011;12941;48.698;9.310;2023-09-19T04:47:29;1.1;;;1.1;;
24867;SDS011;12941;48.698;9.310;2023-09-19T04:48:34;1.1;;;1.1;;
24867;SDS011;12941;48.698;9.310;2023-09-19T04:49:34;1.1;;;1.1;;
24867;SDS011;12941;48.698;9.310;2023-09-19T04:50:34;1.1;;;1.1;;
24867;SDS011;12941;48.698;9.310;2023-09-19T04:51:35;1.1;;;1.1;;
24867;SDS011;12941;48.698;9.310;2023-09-19T04:52:40;1.3;;;0.9;;
24867;SDS011;12941;48.698;9.310;2023-09-19T04:53:39;1.3;;;0.9;;
24867;SDS011;12941;48.698;9.310;2023-09-19T04:54:44;1.3;;;0.9;;
24867;SDS011;12941;48.698;9.310;2023-09-19T04:55:44;1.3;;;0.9;;
24867;SDS011;12941;48.698;9.310;2023-09-19T04:56:45;1.3;;;0.9;;
24867;SDS011;12941;48.698;9.310;2023-09-19T04:57:50;2.7;;;1;;
24867;SDS011;12941;48.698;9.310;2023-09-19T04:58:49;2.7;;;1;;
24867;SDS011;12941;48.698;9.310;2023-09-19T04:59:54;2.7;;;1;;
24867;SDS011;12941;48.698;9.310;2023-09-19T05:00:59;2.7;;;1;;
24867;SDS011;12941;48.698;9.310;2023-09-19T05:01:59;2.7;;;1;;
24867;SDS011;12941;48.698;9.310;2023-09-19T05:03:00;2.2;;;1;;
24867;SDS011;12941;48.698;9.310;2023-09-19T05:04:05;2.2;;;1;;
24867;SDS011;12941;48.698;9.310;2023-09-19T05:05:10;2.2;;;1;;
24867;SDS011;12941;48.698;9.310;2023-09-19T05:06:10;2.2;;;1;;
24867;SDS011;12941;48.698;9.310;2023-09-19T05:07:15;2.2;;;1;;
24867;SDS011;12941;48.698;9.310;2023-09-19T05:08:15;0.9;;;0.8;;
24867;SDS011;12941;48.698;9.310;2023-09-19T05:09:20;0.9;;;0.8;;
24867;SDS011;12941;48.698;9.310;2023-09-19T05:10:25;0.9;;;0.8;;
24867;SDS011;12941;48.698;9.310;2023-09-19T05:11:30;0.9;;;0.8;;
24867;SDS011;12941;48.698;9.310;2023-09-19T05:12:35;1.1;;;1;;
24867;SDS011;12941;48.698;9.310;2023-09-19T05:13:35;1.1;;;1;;
24867;SDS011;12941;48.698;9.310;2023-09-19T05:14:35;1.1;;;1;;
24867;SDS011;12941;48.698;9.310;2023-09-19T05:15:40;1.1;;;1;;
24867;SDS011;12941;48.698;9.310;2023-09-19T05:16:40;1.1;;;1;;
24867;SDS011;12941;48.698;9.310;2023-09-19T05:17:47;1.8;;;1.1;;
24867;SDS011;12941;48.698;9.310;2023-09-19T05:18:50;1.8;;;1.1;;
24867;SDS011;12941;48.698;9.310;2023-09-19T05:19:55;1.8;;;1.1;;
24867;SDS011;12941;48.698;9.310;2023-09-19T05:21:01;1.8;;;1.1;;
24867;SDS011;12941;48.698;9.310;2023-09-19T05:22:00;1.8;;;1.1;;
24867;SDS011;12941;48.698;9.310;2023-09-19T05:23:05;2.2;;;0.9;;
24867;SDS011;12941;48.698;9.310;2023-09-19T05:24:10;2.2;;;0.9;;
24867;SDS011;12941;48.698;9.310;2023-09-19T05:25:15;2.2;;;0.9;;
24867;SDS011;12941;48.698;9.310;2023-09-19T05:26:20;2.2;;;0.9;;
24867;SDS011;12941;48.698;9.310;2023-09-19T05:27:20;1.2;;;1;;
24867;SDS011;12941;48.698;9.310;2023-09-19T05:28:25;1.2;;;1;;
24867;SDS011;12941;48.698;9.310;2023-09-19T05:29:30;1.2;;;1;;
24867;SDS011;12941;48.698;9.310;2023-09-19T05:30:30;1.2;;;1;;
24867;SDS011;12941;48.698;9.310;2023-09-19T05:31:35;1.2;;;1;;
24867;SDS011;12941;48.698;9.310;2023-09-19T05:32:40;1.6;;;1;;
24867;SDS011;12941;48.698;9.310;2023-09-19T05:33:40;1.6;;;1;;
24867;SDS011;12941;48.698;9.310;2023-09-19T05:34:45;1.6;;;1;;
24867;SDS011;12941;48.698;9.310;2023-09-19T05:35:50;1.6;;;1;;
24867;SDS011;12941;48.698;9.310;2023-09-19T05:36:50;1.6;;;1;;
24867;SDS011;12941;48.698;9.310;2023-09-19T05:37:50;1.4;;;0.9;;
24867;SDS011;12941;48.698;9.310;2023-09-19T05:38:55;1.4;;;0.9;;
24867;SDS011;12941;48.698;9.310;2023-09-19T05:39:55;1.4;;;0.9;;
24867;SDS011;12941;48.698;9.310;2023-09-19T05:41:00;1.4;;;0.9;;
24867;SDS011;12941;48.698;9.310;2023-09-19T05:42:05;1.4;;;0.9;;
24867;SDS011;12941;48.698;9.310;2023-09-19T05:43:10;1.8;;;1.1;;
24867;SDS011;12941;48.698;9.310;2023-09-19T05:44:10;1.8;;;1.1;;
24867;SDS011;12941;48.698;9.310;2023-09-19T05:45:10;1.8;;;1.1;;
24867;SDS011;12941;48.698;9.310;2023-09-19T05:46:10;1.8;;;1.1;;
24867;SDS011;12941;48.698;9.310;2023-09-19T05:47:15;1.8;;;1.1;;
24867;SDS011;12941;48.698;9.310;2023-09-19T05:48:15;1.3;;;1.1;;
24867;SDS011;12941;48.698;9.310;2023-09-19T05:49:15;1.3;;;1.1;;
24867;SDS011;12941;48.698;9.310;2023-09-19T05:50:20;1.3;;;1.1;;
24867;SDS011;12941;48.698;9.310;2023-09-19T05:51:25;1.3;;;1.1;;
24867;SDS011;12941;48.698;9.310;2023-09-19T05:52:25;1.4;;;1.1;;
24867;SDS011;12941;48.698;9.310;2023-09-19T05:53:25;1.4;;;1.1;;
24867;SDS011;12941;48.698;9.310;2023-09-19T05:54:30;1.4;;;1.1;;
24867;SDS011;12941;48.698;9.310;2023-09-19T05:55:30;1.4;;;1.1;;
24867;SDS011;12941;48.698;9.310;2023-09-19T05:56:30;1.4;;;1.1;;
24867;SDS011;12941;48.698;9.310;2023-09-19T05:57:35;1.8;;;1.2;;
24867;SDS011;12941;48.698;9.310;2023-09-19T05:58:35;1.8;;;1.2;;
24867;SDS011;12941;48.698;9.310;2023-09-19T05:59:40;1.8;;;1.2;;
24867;SDS011;12941;48.698;9.310;2023-09-19T06:00:40;1.8;;;1.2;;
24867;SDS011;12941;48.698;9.310;2023-09-19T06:01:45;1.8;;;1.2;;
24867;SDS011;12941;48.698;9.310;2023-09-19T06:02:50;2.8;;;1.1;;
24867;SDS011;12941;48.698;9.310;2023-09-19T06:03:55;2.8;;;1.1;;
24867;SDS011;12941;48.698;9.310;2023-09-19T06:04:55;2.8;;;1.1;;
24867;SDS011;12941;48.698;9.310;2023-09-19T06:05:55;2.8;;;1.1;;
24867;SDS011;12941;48.698;9.310;2023-09-19T06:07:00;2.8;;;1.1;;
24867;SDS011;12941;48.698;9.310;2023-09-19T06:08:00;2.4;;;1.1;;
24867;SDS011;12941;48.698;9.310;2023-09-19T06:09:00;2.4;;;1.1;;
24867;SDS011;12941;48.698;9.310;2023-09-19T06:10:06;2.4;;;1.1;;
24867;SDS011;12941;48.698;9.310;2023-09-19T06:11:10;2.4;;;1.1;;
24867;SDS011;12941;48.698;9.310;2023-09-19T06:12:10;2.4;;;1.1;;
24867;SDS011;12941;48.698;9.310;2023-09-19T06:13:10;1.5;;;1.1;;
24867;SDS011;12941;48.698;9.310;2023-09-19T06:14:15;1.5;;;1.1;;
24867;SDS011;12941;48.698;9.310;2023-09-19T06:15:15;1.5;;;1.1;;
24867;SDS011;12941;48.698;9.310;2023-09-19T06:16:15;1.5;;;1.1;;
24867;SDS011;12941;48.698;9.310;2023-09-19T06:17:20;1.7;;;1.1;;
24867;SDS011;12941;48.698;9.310;2023-09-19T06:18:25;1.7;;;1;;
24867;SDS011;12941;48.698;9.310;2023-09-19T06:19:25;1.7;;;1;;
24867;SDS011;12941;48.698;9.310;2023-09-19T06:20:30;1.7;;;1;;
24867;SDS011;12941;48.698;9.310;2023-09-19T06:21:35;1.7;;;1;;
24867;SDS011;12941;48.698;9.310;2023-09-19T06:22:35;4.4;;;1;;
24867;SDS011;12941;48.698;9.310;2023-09-19T06:23:35;4.4;;;1;;
24867;SDS011;12941;48.698;9.310;2023-09-19T06:24:40;4.4;;;1;;
24867;SDS011;12941;48.698;9.310;2023-09-19T06:25:45;4.4;;;1;;
24867;SDS011;12941;48.698;9.310;2023-09-19T06:26:45;4.4;;;1;;
24867;SDS011;12941;48.698;9.310;2023-09-19T06:27:51;1.5;;;1;;
24867;SDS011;12941;48.698;9.310;2023-09-19T06:28:50;1.5;;;1;;
24867;SDS011;12941;48.698;9.310;2023-09-19T06:29:55;1.5;;;1;;
24867;SDS011;12941;48.698;9.310;2023-09-19T06:31:01;1.5;;;1;;
24867;SDS011;12941;48.698;9.310;2023-09-19T06:32:07;1.5;;;1;;